Date,TemperatureHighF,TemperatureAvgF,TemperatureLowF,DewpointHighF,DewpointAvgF,DewpointLowF,HumidityHigh,HumidityAvg,HumidityLow,PressureMaxIn,PressureMinIn,WindSpeedMaxMPH,WindSpeedAvgMPH,GustSpeedMaxMPH,PrecipitationSumIn
2013-1-1,35.6,30.7,18.9,25.4,18.3,5.4,71,60,49,29.90,29.68,34,6,34,0.00
2013-1-2,29.3,20.4,11.8,16.7,8.2,-2.0,67,59,53,30.08,29.86,24,6,24,0.00
2013-1-3,24.4,14.9,6.0,9.5,0.6,-5.6,63,53,40,30.11,29.96,19,4,19,0.00
2013-1-4,38.5,27.8,16.3,24.1,17.8,8.2,79,66,54,29.96,29.77,22,4,22,0.05
2013-1-5,40.5,32.2,24.7,25.3,20.3,16.9,73,62,44,30.23,29.81,21,3,21,0.05
2013-1-6,41.9,32.9,24.9,28.4,24.2,17.5,80,70,57,30.19,29.90,16,2,16,0.07
2013-1-7,37.8,31.6,25.7,27.0,21.4,15.4,82,67,47,30.37,29.92,18,3,18,0.02
2013-1-8,45.4,34.5,25.4,29.3,25.3,20.1,84,70,52,30.34,30.22,22,3,22,0.10
2013-1-9,42.3,35.6,25.9,33.5,27.2,20.2,84,72,58,30.37,29.94,20,3,20,0.02
2013-1-10,45.9,40.7,32.9,28.2,24.5,21.8,64,53,43,30.50,29.99,34,8,34,0.00
2013-1-11,40.8,35.3,28.1,33.9,26.9,20.3,85,71,63,30.49,30.19,11,2,11,0.06
2013-1-12,43.6,40.9,38.0,40.1,37.4,33.9,88,87,85,30.20,30.09,10,2,10,0.02
2013-1-13,52.1,46.7,42.2,47.6,43.3,38.9,92,88,85,30.12,29.95,15,2,15,0.00
2013-1-14,60.3,51.9,42.4,51.1,42.2,27.1,87,71,47,30.22,29.80,20,5,20,0.00
2013-1-15,42.4,38.9,35.1,27.9,25.3,22.5,64,58,54,30.28,30.18,12,3,12,0.00
2013-1-16,35.3,33.2,30.9,29.7,27.4,21.5,87,79,58,30.21,29.79,14,2,14,0.11
2013-1-17,40.1,34.1,29.5,31.6,26.5,13.7,87,74,52,30.06,29.80,17,4,17,0.13
2013-1-18,29.5,22.7,18.0,14.5,3.4,-2.4,53,43,34,30.42,30.02,24,6,24,0.00
2013-1-19,48.2,36.9,23.0,30.2,22.1,6.2,70,55,42,30.36,29.85,26,6,26,0.10
2013-1-20,53.7,41.2,29.0,31.7,25.3,10.1,70,54,37,29.89,29.50,33,8,33,0.00
2013-1-21,30.7,25.9,22.0,18.4,10.6,4.7,78,53,37,30.07,29.76,20,4,20,0.00
2013-1-22,25.7,21.1,14.0,17.9,8.9,0.1,80,60,40,30.04,29.72,21,6,21,0.00
2013-1-23,18.0,12.3,7.8,1.2,-5.3,-9.1,59,45,31,30.11,30.02,28,6,28,0.00
2013-1-24,20.3,11.6,3.6,-4.7,-8.1,-10.9,58,41,29,30.18,30.02,31,8,31,0.00
2013-1-25,25.0,16.9,8.9,10.8,-4.6,-10.6,72,39,27,30.27,30.03,22,6,22,0.00
2013-1-26,24.3,17.7,12.3,11.0,2.9,-5.6,81,54,33,30.20,29.97,23,6,23,0.00
2013-1-27,30.1,20.8,12.9,5.2,1.2,-3.1,64,43,30,30.43,30.19,24,7,24,0.00
2013-1-28,31.6,25.4,19.1,25.0,11.3,0.8,84,57,31,30.42,29.98,12,2,12,0.00
2013-1-29,34.3,30.5,25.9,30.3,25.6,21.4,85,82,78,30.16,29.98,9,2,9,0.08
2013-1-30,59.4,48.4,33.7,55.1,44.5,29.7,90,86,82,30.13,29.42,30,6,30,0.11
2013-1-31,59.8,47.0,30.5,55.9,36.3,15.5,87,68,45,29.56,28.93,47,12,47,0.13
2013-2-1,34.4,29.1,22.8,17.5,10.1,4.7,58,45,34,30.05,29.56,24,8,24,0.00
2013-2-2,32.3,25.3,18.5,12.0,7.5,3.8,56,47,36,30.22,30.01,15,5,15,0.00
2013-2-3,27.0,25.2,22.8,20.5,17.9,11.7,79,74,52,30.02,29.69,12,4,12,0.00
2013-2-4,29.9,24.7,20.3,18.8,11.6,5.6,79,58,41,29.91,29.68,30,7,30,0.00
2013-2-5,30.1,25.7,20.9,21.3,12.7,7.6,80,58,45,30.00,29.90,13,3,13,0.00
2013-2-6,38.7,30.1,24.9,25.6,19.2,7.3,82,65,44,30.26,29.89,23,4,23,0.03
2013-2-7,29.2,24.8,18.4,16.6,4.8,0.1,61,42,31,30.50,30.26,22,4,22,0.00
2013-2-8,33.3,29.8,18.1,28.8,23.8,14.1,87,79,61,30.45,29.56,41,11,41,0.03
2013-2-9,20.4,17.8,13.1,16.6,13.6,8.6,92,84,82,30.15,29.52,34,11,34,0.00
2013-2-10,31.4,19.4,7.6,28.3,15.4,2.8,88,84,80,30.36,30.15,21,2,21,0.00
2013-2-11,39.4,28.6,15.1,36.7,25.4,10.9,90,88,83,30.32,29.57,13,1,13,0.35
2013-2-12,42.2,36.4,31.3,32.5,29.1,24.8,90,75,59,29.84,29.57,28,6,28,0.06
2013-2-13,42.2,34.0,25.5,27.2,24.1,18.8,79,68,53,29.84,29.65,12,2,12,0.00
2013-2-14,45.0,35.7,29.4,26.8,23.5,20.0,76,61,43,29.96,29.67,15,4,15,0.00
2013-2-15,51.6,38.9,29.9,35.1,29.5,21.9,84,70,52,29.97,29.86,19,4,19,0.00
2013-2-16,38.0,34.6,30.8,29.9,25.8,18.0,84,71,55,29.92,29.67,17,5,17,0.03
2013-2-17,30.7,21.7,17.3,18.8,11.6,2.5,82,66,50,29.67,29.33,35,11,35,0.00
2013-2-18,31.0,22.2,14.2,6.8,3.3,0.6,55,44,29,30.12,29.63,31,9,31,0.00
2013-2-19,46.9,35.5,21.9,37.8,23.3,4.0,87,62,45,30.13,29.54,18,4,18,0.34
2013-2-20,40.3,32.5,26.0,36.7,21.1,12.1,92,64,46,29.74,29.48,30,8,30,0.01
2013-2-21,32.3,27.3,23.8,15.2,13.4,10.5,64,56,47,30.14,29.73,28,8,28,0.00
2013-2-22,40.0,31.9,22.8,24.4,20.4,14.5,74,63,48,30.36,30.14,18,5,18,0.00
2013-2-23,38.8,35.1,31.3,30.4,27.8,22.3,86,75,67,30.31,29.89,16,4,16,0.12
2013-2-24,37.1,34.2,31.0,33.9,30.6,27.6,88,87,86,29.89,29.65,25,5,25,0.52
2013-2-25,38.8,34.2,30.2,30.6,28.5,26.4,87,80,68,30.22,29.86,11,2,11,0.07
2013-2-26,44.8,36.6,28.8,34.1,28.6,24.6,87,73,52,30.31,30.13,17,4,17,0.00
2013-2-27,41.1,39.3,37.7,38.9,35.4,30.2,92,86,74,30.13,29.52,38,12,38,1.02
2013-2-28,44.6,34.7,33.9,37.8,21.8,-99.9,88,76,72,29.61,29.49,9,-85,9,0.00
2013-3-1,40.2,37.4,34.2,33.2,29.4,26.6,85,73,63,29.64,29.50,16,4,16,0.00
2013-3-2,42.6,37.4,31.4,29.8,26.8,24.1,76,66,57,29.64,29.58,16,4,16,0.00
2013-3-3,42.9,36.3,32.8,31.6,27.7,24.1,82,71,63,29.61,29.52,15,4,15,0.00
2013-3-4,40.4,34.7,30.0,28.3,23.8,20.6,80,64,52,29.70,29.54,29,9,29,0.00
2013-3-5,45.4,37.3,31.1,32.3,26.6,21.0,78,65,54,30.04,29.70,21,5,21,0.00
2013-3-6,40.9,37.5,34.9,33.7,31.4,28.0,84,79,66,30.09,30.01,35,12,35,0.13
2013-3-7,36.0,32.7,31.0,29.6,28.0,26.7,86,83,72,30.04,29.95,32,10,32,0.15
2013-3-8,39.9,32.9,29.3,29.5,26.7,22.9,88,79,58,30.11,29.90,38,8,38,0.02
2013-3-9,44.2,35.8,29.6,32.8,25.9,20.3,83,67,59,30.32,30.10,20,5,20,0.74
2013-3-10,42.9,34.8,26.4,33.0,28.3,22.2,91,77,66,30.38,30.29,12,4,14,0.08
2013-3-11,54.2,42.5,35.1,39.9,34.5,29.9,83,74,57,30.30,30.12,17,4,17,0.00
2013-3-12,56.3,49.9,41.1,50.6,45.4,36.3,88,84,76,30.14,29.69,24,6,24,0.14
2013-3-13,52.5,44.9,36.8,49.0,31.8,20.3,88,62,35,29.75,29.66,19,5,19,0.00
2013-3-14,38.4,33.0,23.5,24.0,16.4,7.4,63,51,39,29.80,29.67,26,7,26,0.00
2013-3-15,41.5,30.7,20.3,25.3,12.9,4.0,67,48,28,29.84,29.59,25,7,25,0.00
2013-3-16,40.4,34.7,27.4,24.6,15.6,10.5,67,47,30,29.85,29.63,18,4,18,0.00
2013-3-17,38.4,31.7,25.0,16.9,11.2,4.7,65,43,28,30.29,29.84,22,5,22,0.00
2013-3-18,41.6,30.0,19.6,25.1,10.9,1.5,80,46,28,30.43,30.22,14,5,14,0.01
2013-3-19,35.3,32.6,27.9,32.1,28.9,23.9,88,86,80,30.22,29.57,32,10,32,0.59
2013-3-20,37.6,30.7,25.1,23.9,21.7,19.8,85,70,51,29.78,29.66,28,5,28,0.04
2013-3-21,37.9,30.8,23.6,27.7,21.9,17.3,82,70,51,29.79,29.58,11,2,11,0.14
2013-3-22,39.2,33.4,27.8,25.9,20.8,18.3,81,60,45,29.71,29.57,19,5,19,0.14
2013-3-23,42.4,34.8,26.7,22.8,20.2,17.2,71,56,40,29.75,29.59,27,7,27,0.07
2013-3-24,45.1,37.7,28.9,29.4,23.7,19.0,70,58,44,29.78,29.69,21,5,21,0.01
2013-3-25,48.6,38.5,32.1,35.3,28.9,24.3,74,68,53,29.74,29.49,24,6,24,0.00
2013-3-26,49.4,41.2,34.1,29.6,25.0,20.5,80,54,34,29.74,29.50,17,5,17,0.01
2013-3-27,54.7,43.4,30.9,30.7,24.9,20.2,66,49,34,29.83,29.69,25,6,25,0.00
2013-3-28,48.2,42.6,37.2,35.4,32.5,29.3,84,68,49,29.98,29.83,15,4,15,0.02
2013-3-29,56.7,46.2,34.8,36.5,32.3,27.4,78,59,39,30.01,29.92,23,4,23,0.01
2013-3-30,57.4,47.4,37.8,33.0,26.7,16.5,71,48,22,30.06,29.96,18,4,18,0.00
2013-3-31,62.1,47.0,31.0,39.5,27.8,22.8,74,51,24,30.09,29.72,26,5,26,0.00
2013-4-1,64.0,48.0,35.4,47.8,37.1,14.6,87,68,40,29.75,29.46,32,7,32,0.14
2013-4-2,43.3,35.6,29.9,19.4,15.1,11.0,53,43,32,29.91,29.75,34,8,34,0.00
2013-4-3,46.5,37.6,30.0,17.8,14.5,11.7,57,40,25,30.12,29.89,30,9,30,0.00
2013-4-4,56.2,42.6,28.8,25.2,18.1,14.4,59,39,20,30.26,30.01,17,5,17,0.00
2013-4-5,59.3,46.8,38.1,31.7,26.8,21.8,64,48,26,30.02,29.58,30,6,30,0.00
2013-4-6,46.1,38.8,32.6,24.1,12.7,5.1,55,36,19,30.30,29.84,28,7,28,0.00
2013-4-7,54.9,43.2,29.5,38.5,27.4,15.8,74,55,31,30.30,29.97,33,6,33,0.00
2013-4-8,65.0,52.6,42.8,42.2,39.1,36.6,85,62,36,30.07,29.92,18,4,18,0.00
2013-4-9,70.8,55.7,47.7,53.2,44.0,37.3,87,66,43,30.06,29.82,23,5,23,0.15
2013-4-10,64.5,52.0,46.9,48.4,43.6,39.8,86,74,53,29.98,29.83,15,4,15,0.19
2013-4-11,54.6,47.9,44.2,45.2,40.1,29.0,87,75,54,30.12,29.79,13,4,13,0.04
2013-4-12,44.2,39.9,38.3,36.7,34.0,30.7,87,80,59,30.14,29.75,31,9,31,0.38
2013-4-13,52.4,42.5,36.0,40.4,36.0,32.2,87,78,57,29.90,29.72,19,4,19,0.03
2013-4-14,54.5,46.4,39.8,39.0,32.9,27.3,82,61,40,30.18,29.88,24,4,24,0.00
2013-4-15,59.2,46.9,34.8,38.5,33.1,26.3,75,59,42,30.36,30.18,21,5,21,0.00
2013-4-16,66.7,53.6,41.0,48.8,41.1,34.0,84,64,44,30.38,30.02,29,6,29,0.00
2013-4-17,66.3,59.1,52.5,50.7,38.2,29.0,78,49,27,30.30,30.01,21,6,21,0.00
2013-4-18,65.5,54.2,43.6,42.3,34.9,27.5,66,49,32,30.40,30.12,22,6,22,0.00
2013-4-19,75.7,64.3,53.4,62.0,56.1,42.3,87,76,57,30.12,29.63,31,8,33,0.00
2013-4-20,66.8,55.1,45.0,61.1,42.7,24.9,87,66,41,30.18,29.56,25,7,25,0.41
2013-4-21,53.2,44.2,35.5,31.1,25.0,20.8,60,47,32,30.65,30.18,20,6,20,0.00
2013-4-22,54.9,44.4,35.3,34.9,30.5,24.9,76,59,34,30.73,30.56,26,8,28,0.00
2013-4-23,43.1,42.0,40.8,38.9,36.3,30.4,89,80,65,30.56,30.09,22,8,22,0.04
2013-4-24,71.6,54.5,42.4,54.0,44.8,38.8,87,72,46,30.09,29.75,22,6,24,0.02
2013-4-25,64.7,56.1,47.0,50.6,38.6,27.3,84,55,27,30.23,29.80,23,5,23,0.02
2013-4-26,61.4,51.6,43.0,40.1,35.4,29.1,76,55,39,30.40,30.23,21,6,21,0.00
2013-4-27,67.0,53.7,40.2,40.2,36.4,31.8,83,55,31,30.39,30.26,18,4,18,0.00
2013-4-28,69.8,56.4,42.2,41.5,36.1,28.0,78,49,29,30.31,30.18,22,4,22,0.00
2013-4-29,71.3,59.0,48.7,47.7,38.0,20.2,76,49,22,30.25,30.15,18,4,18,0.00
2013-4-30,69.8,57.2,45.9,38.2,30.4,13.0,69,40,13,30.34,30.22,17,4,17,0.00
2013-5-1,68.7,56.3,41.1,41.8,35.7,30.2,76,49,24,30.44,30.34,15,3,15,0.00
2013-5-2,77.0,56.9,45.3,47.6,40.9,35.9,79,58,25,30.45,30.33,28,4,28,0.00
2013-5-3,60.4,51.1,44.2,43.8,39.8,36.9,80,66,52,30.49,30.34,19,6,19,0.00
2013-5-4,59.0,50.1,41.5,45.0,39.1,35.8,84,67,51,30.34,30.28,19,5,19,0.00
2013-5-5,60.1,49.9,38.7,41.5,38.1,33.4,83,66,46,30.30,30.23,18,5,18,0.00
2013-5-6,63.1,51.3,40.5,47.3,42.8,34.9,85,73,55,30.26,30.13,15,3,15,0.00
2013-5-7,74.7,61.4,45.0,57.5,49.9,39.8,86,68,45,30.15,30.06,17,4,17,0.00
2013-5-8,70.6,62.3,55.5,60.8,55.4,49.6,87,78,69,30.17,30.02,23,5,23,0.27
2013-5-9,63.6,59.1,57.2,59.3,55.6,53.1,90,88,82,30.02,29.85,15,2,15,0.79
2013-5-10,73.8,63.3,56.6,61.6,56.3,53.5,91,79,61,29.92,29.85,15,3,15,0.02
2013-5-11,72.2,64.9,60.1,61.8,57.8,53.4,86,78,67,29.88,29.66,25,4,25,0.01
2013-5-12,68.5,61.6,51.5,58.7,52.0,34.1,88,72,44,29.77,29.52,25,4,25,0.03
2013-5-13,58.3,52.1,45.5,38.0,33.6,28.7,64,50,36,29.99,29.77,22,4,22,0.00
2013-5-14,57.9,50.9,42.0,36.8,33.3,30.7,69,52,37,30.02,29.93,20,5,20,0.00
2013-5-15,66.6,54.8,40.6,51.0,39.9,31.8,81,60,32,30.03,29.64,24,4,24,0.00
2013-5-16,78.0,65.6,48.7,52.5,43.9,35.3,85,51,26,29.77,29.58,27,4,27,0.00
2013-5-17,66.7,60.3,53.4,46.5,42.4,36.4,68,52,33,30.18,29.77,26,5,26,0.00
2013-5-18,70.7,60.9,48.6,49.0,44.9,39.8,78,57,33,30.27,30.18,17,3,17,0.00
2013-5-19,71.7,58.9,52.7,53.1,49.3,45.3,86,71,49,30.31,30.19,19,3,19,0.06
2013-5-20,78.6,66.7,57.0,65.6,59.4,52.9,89,78,60,30.19,29.87,17,2,17,0.03
2013-5-21,75.0,61.8,52.3,63.0,55.2,48.2,86,79,63,30.00,29.84,23,4,23,0.07
2013-5-22,64.8,56.7,51.5,58.7,51.6,47.8,88,83,73,30.03,29.85,19,4,19,0.07
2013-5-23,74.7,64.2,55.4,67.3,59.2,51.6,90,84,72,29.90,29.77,26,4,26,0.06
2013-5-24,69.5,63.1,50.6,65.3,59.5,47.2,90,88,80,29.79,29.62,19,3,19,0.44
2013-5-25,52.7,48.8,42.1,49.4,45.6,38.5,89,89,87,29.78,29.66,25,6,25,0.18
2013-5-26,56.6,48.5,41.1,45.1,40.6,37.3,88,75,53,30.06,29.68,32,7,32,0.43
2013-5-27,68.5,57.5,44.0,45.7,41.3,36.8,82,58,32,30.14,30.03,22,4,22,0.00
2013-5-28,71.0,60.5,47.2,51.7,45.5,39.3,82,60,34,30.20,30.12,17,4,17,0.00
2013-5-29,68.0,62.8,59.5,62.7,57.8,51.2,89,84,70,30.16,29.95,12,3,12,0.83
2013-5-30,83.3,73.0,61.5,69.6,65.2,58.5,91,78,59,30.04,29.95,19,2,19,0.01
2013-5-31,89.0,79.9,67.7,70.8,66.0,62.2,84,65,44,30.05,29.88,17,2,17,0.00
2013-6-1,89.5,80.9,70.4,68.5,65.5,61.7,75,60,44,29.93,29.81,23,4,23,0.00
2013-6-2,88.6,79.1,71.1,69.5,65.9,63.3,79,65,46,29.84,29.68,34,5,34,0.00
2013-6-3,74.6,69.7,63.7,66.5,62.7,48.3,88,79,57,29.81,29.71,14,2,14,0.35
2013-6-4,68.4,63.1,54.6,50.3,47.0,42.6,68,56,45,30.06,29.79,22,5,22,0.00
2013-6-5,72.2,64.5,54.8,51.2,48.0,44.6,75,56,41,30.15,30.05,17,4,17,0.00
2013-6-6,74.7,66.6,58.7,54.4,49.8,42.3,72,56,35,30.15,30.06,17,4,17,0.00
2013-6-7,63.1,57.3,54.3,55.0,52.4,48.4,91,84,69,30.08,29.77,18,6,18,2.57
2013-6-8,72.7,61.9,53.9,64.8,57.1,50.7,91,85,73,29.96,29.57,20,4,20,0.96
2013-6-9,75.9,68.0,58.2,60.5,57.0,53.8,87,69,51,30.12,29.96,15,2,15,0.00
2013-6-10,70.2,64.2,58.7,57.8,55.7,54.2,88,74,59,30.17,29.99,16,4,16,0.70
2013-6-11,61.8,58.7,56.6,57.8,55.2,53.1,92,88,82,29.99,29.53,25,5,25,1.34
2013-6-12,68.0,62.0,57.0,58.2,55.6,52.8,90,80,64,29.77,29.52,28,4,28,0.08
2013-6-13,67.6,59.3,53.3,56.6,53.0,49.4,88,80,62,29.78,29.64,15,2,15,0.60
2013-6-14,67.4,58.6,52.0,57.5,52.8,48.3,90,82,66,29.72,29.60,17,4,17,1.36
2013-6-15,73.8,66.2,56.0,54.9,50.7,45.6,83,59,37,29.90,29.72,19,4,19,0.00
2013-6-16,74.2,67.5,57.2,61.3,54.6,48.6,77,64,50,29.90,29.67,16,2,16,0.00
2013-6-17,82.6,69.6,61.6,64.9,59.6,-99.9,89,73,43,29.87,29.73,30,-1,30,0.48
2013-6-18,73.7,63.5,59.0,63.5,58.7,55.4,90,85,62,29.91,29.84,16,2,16,0.50
2013-6-19,71.3,64.4,56.8,56.2,52.2,45.8,89,67,42,30.11,29.87,15,4,15,0.01
2013-6-20,76.3,67.5,55.5,56.7,52.5,49.6,81,60,40,30.22,30.10,13,-1,13,0.00
2013-6-21,80.4,72.0,60.8,64.9,58.8,52.8,76,64,45,30.21,30.14,13,3,13,0.01
2013-6-22,82.1,73.9,65.2,66.2,59.9,55.6,75,62,48,30.18,30.07,20,3,20,0.00
2013-6-23,87.3,77.3,67.1,72.7,64.7,56.2,74,65,55,30.12,29.94,23,3,23,0.00
2013-6-24,89.5,80.2,72.0,74.5,69.8,66.6,89,72,55,29.98,29.82,24,3,24,0.51
2013-6-25,91.7,80.8,68.5,76.9,68.5,65.4,94,69,45,29.88,29.68,21,3,21,0.00
2013-6-26,83.2,77.8,71.2,71.6,67.1,63.0,81,70,59,29.82,29.68,11,3,11,0.04
2013-6-27,71.1,66.8,63.2,64.4,60.6,57.6,85,80,73,29.83,29.72,13,4,13,0.03
2013-6-28,79.7,70.7,61.9,71.5,65.2,57.3,87,83,71,29.73,29.45,22,5,22,0.52
2013-6-29,81.8,75.6,71.5,70.7,68.0,65.7,88,78,62,29.69,29.48,22,5,22,0.00
2013-6-30,83.3,76.2,71.1,72.2,68.5,66.0,86,78,66,29.90,29.69,19,3,19,0.00
2013-7-1,80.2,75.8,72.8,74.0,70.7,68.7,88,84,78,30.05,29.90,18,3,18,0.09
2013-7-2,81.6,74.0,63.9,73.5,67.6,58.6,86,81,67,30.18,30.04,15,3,15,0.00
2013-7-3,86.1,75.6,63.3,73.6,67.6,58.7,87,77,62,30.17,30.09,16,3,16,0.00
2013-7-4,89.3,82.5,74.5,75.1,72.6,69.4,86,73,58,30.17,30.05,17,3,17,0.00
2013-7-5,90.4,84.6,77.7,76.2,73.1,70.7,80,69,56,30.12,29.99,16,3,16,0.00
2013-7-6,89.1,83.6,77.9,76.0,71.7,64.4,80,68,56,30.03,29.93,17,3,17,0.00
2013-7-7,89.0,81.6,74.2,74.8,69.7,63.5,77,68,52,29.98,29.86,13,2,13,0.00
2013-7-8,84.3,78.2,70.2,74.9,69.8,63.3,84,76,64,30.03,29.86,15,4,15,0.00
2013-7-9,73.7,69.8,66.6,65.7,63.5,61.6,86,80,74,30.07,30.01,11,3,11,0.00
2013-7-10,84.3,74.7,67.9,73.2,68.6,62.5,90,82,68,30.04,29.75,22,4,22,0.00
2013-7-11,80.5,76.7,73.9,72.6,70.5,68.0,87,81,71,29.89,29.74,12,2,12,0.09
2013-7-12,76.3,72.0,69.1,68.4,60.4,55.3,85,67,49,30.16,29.88,17,5,17,0.00
2013-7-13,77.2,71.4,67.2,67.5,64.3,60.7,85,78,71,30.27,30.16,11,3,12,0.00
2013-7-14,88.5,79.3,70.9,73.4,70.3,66.2,88,75,55,30.27,30.17,13,2,15,0.00
2013-7-15,89.9,82.2,74.5,74.4,70.6,68.4,84,69,52,30.17,30.05,11,2,11,0.00
2013-7-16,91.2,82.1,73.7,73.0,68.6,65.3,77,65,48,30.13,30.07,14,4,14,0.00
2013-7-17,91.0,83.7,74.5,74.0,70.4,67.2,81,65,47,30.14,29.95,19,2,19,0.00
2013-7-18,90.3,83.2,79.1,74.3,70.9,67.0,78,67,52,29.97,29.91,20,4,20,0.00
2013-7-19,95.2,86.7,78.3,77.3,73.5,70.2,83,66,47,29.91,29.67,26,3,26,0.00
2013-7-20,92.5,86.1,80.3,77.2,73.1,65.1,79,66,51,29.77,29.60,19,3,19,0.00
2013-7-21,80.5,76.7,73.3,67.4,63.9,59.0,79,65,51,29.95,29.77,18,4,18,0.00
2013-7-22,81.0,75.0,70.6,68.2,66.2,64.2,84,75,59,29.98,29.85,16,4,16,0.00
2013-7-23,78.3,72.9,70.3,73.3,69.2,65.6,91,88,81,29.85,29.51,24,3,24,1.09
2013-7-24,81.5,75.4,68.8,72.1,67.6,54.6,91,78,58,29.92,29.55,16,3,19,0.00
2013-7-25,68.6,62.5,60.3,57.3,53.9,48.8,89,74,58,30.07,29.92,15,4,15,0.69
2013-7-26,68.8,64.6,60.4,65.2,61.3,57.1,91,89,87,30.02,29.89,18,4,18,1.31
2013-7-27,79.2,67.7,60.7,67.1,62.0,57.4,90,83,58,30.02,29.96,15,2,15,0.00
2013-7-28,78.3,71.9,68.8,69.5,66.0,63.3,88,82,73,29.99,29.93,14,2,14,0.03
2013-7-29,81.8,73.7,69.1,70.3,66.8,64.3,87,79,63,30.00,29.93,18,2,18,0.18
2013-7-30,78.2,71.7,63.1,66.1,61.1,56.6,88,71,50,30.06,29.99,17,3,17,0.00
2013-7-31,79.7,73.3,65.1,63.5,60.1,56.7,79,64,50,30.10,30.00,11,3,13,0.00
2013-8-1,80.9,73.5,66.9,64.5,61.9,60.1,82,68,53,30.01,29.85,18,3,18,0.00
2013-8-2,77.3,71.3,66.3,67.8,62.7,59.3,89,75,55,29.85,29.75,22,2,22,0.37
2013-8-3,76.4,71.8,67.2,63.8,62.3,60.5,82,72,59,29.83,29.74,14,2,19,0.00
2013-8-4,77.3,69.5,63.4,62.0,58.1,54.6,77,68,49,29.85,29.73,20,3,20,0.02
2013-8-5,72.8,66.3,59.5,54.6,50.6,44.2,76,59,37,30.01,29.85,20,4,20,0.00
2013-8-6,76.5,67.1,55.9,56.9,51.5,47.9,78,59,40,30.11,30.01,16,3,16,0.00
2013-8-7,79.1,70.2,60.2,59.4,54.9,49.1,82,60,40,30.15,30.07,18,4,18,0.00
2013-8-8,79.4,72.9,67.5,69.7,64.4,52.8,84,75,58,30.10,29.96,18,3,18,0.01
2013-8-9,74.9,73.5,72.0,71.9,69.4,67.4,91,87,82,29.99,29.71,20,4,20,0.76
2013-8-10,78.7,72.7,67.2,69.3,63.2,56.3,92,74,54,29.97,29.75,22,3,22,0.00
2013-8-11,75.8,69.1,59.5,58.5,55.9,53.0,81,64,49,30.05,29.96,15,2,15,0.00
2013-8-12,78.2,71.8,64.1,62.0,58.9,55.8,81,65,49,29.99,29.88,14,2,14,0.00
2013-8-13,74.7,71.2,68.4,65.8,62.7,59.9,80,75,62,29.89,29.65,13,1,13,0.00
2013-8-14,72.7,68.0,63.2,62.2,55.4,51.3,82,65,50,29.93,29.63,24,5,24,0.00
2013-8-15,74.4,67.1,58.2,55.0,52.5,50.0,75,60,44,30.08,29.92,15,3,15,0.00
2013-8-16,76.2,68.5,59.5,57.6,54.5,51.9,78,62,45,30.15,30.07,18,3,18,0.36
2013-8-17,77.1,68.8,59.9,60.7,56.4,52.9,79,65,49,30.24,30.15,14,3,14,0.00
2013-8-18,79.8,71.1,63.4,63.8,59.0,56.2,81,66,49,30.24,30.05,11,1,11,0.00
2013-8-19,81.2,72.2,61.7,65.5,59.9,55.6,83,66,49,30.05,29.91,15,2,15,0.00
2013-8-20,83.1,75.1,66.0,65.2,61.5,58.0,79,64,47,30.05,29.94,12,2,12,0.00
2013-8-21,85.1,75.9,64.9,67.2,63.0,58.2,81,65,50,30.10,29.98,13,1,13,0.00
2013-8-22,85.4,76.6,68.0,72.0,66.5,61.3,83,71,55,30.00,29.78,17,2,17,0.00
2013-8-23,78.7,73.0,66.0,67.6,59.6,50.3,84,64,47,30.09,29.78,19,4,19,0.00
2013-8-24,74.0,66.5,57.3,51.5,47.3,42.4,72,52,35,30.30,30.09,15,4,15,0.00
2013-8-25,79.3,69.1,56.8,55.6,51.7,47.4,78,56,36,30.33,30.15,15,2,15,0.00
2013-8-26,81.6,73.0,66.7,66.1,61.5,55.3,77,67,56,30.15,29.83,22,2,22,0.01
2013-8-27,80.0,74.4,69.5,68.7,65.7,62.6,86,75,62,29.86,29.80,14,3,14,0.01
2013-8-28,80.8,71.3,65.8,67.6,63.2,60.6,86,76,57,29.95,29.82,16,3,16,0.00
2013-8-29,67.1,65.5,63.4,62.4,59.6,56.1,86,81,76,30.04,29.92,17,4,17,0.00
2013-8-30,79.8,71.3,63.5,66.8,62.3,56.6,81,74,62,30.00,29.78,15,2,15,0.00
2013-8-31,81.1,75.1,70.1,72.9,69.1,65.0,87,82,74,29.80,29.75,19,2,19,0.02
2013-9-1,76.6,73.4,71.1,73.4,69.3,65.8,90,87,81,29.85,29.75,12,2,12,0.38
2013-9-2,80.7,75.0,71.5,73.9,70.4,68.0,90,86,74,29.84,29.68,20,3,20,0.03
2013-9-3,80.9,75.0,68.2,70.5,67.2,57.8,87,77,66,29.77,29.65,16,2,16,0.00
2013-9-4,77.5,70.4,61.6,60.1,57.1,54.9,80,64,47,29.88,29.77,17,3,17,0.00
2013-9-5,69.3,64.8,55.5,60.7,55.6,45.8,85,73,53,30.11,29.82,15,2,15,0.08
2013-9-6,66.4,58.5,49.3,45.9,43.1,39.9,75,58,39,30.21,30.06,10,2,12,0.00
2013-9-7,76.5,64.8,52.3,55.8,49.6,43.9,73,59,42,30.06,29.81,14,2,14,0.00
2013-9-8,74.8,66.0,56.2,61.2,51.4,40.1,80,61,38,30.06,29.70,26,5,26,0.01
2013-9-9,69.5,59.7,48.5,49.2,44.4,39.7,73,58,43,30.20,30.06,16,2,16,0.00
2013-9-10,73.1,67.1,58.1,68.3,60.4,48.8,88,79,69,30.12,29.99,18,2,18,0.07
2013-9-11,90.9,79.5,68.8,75.9,70.2,64.8,90,75,52,30.03,29.89,17,2,17,0.01
2013-9-12,87.1,78.8,68.4,74.2,69.3,64.0,86,73,59,29.93,29.63,24,4,24,1.17
2013-9-13,72.1,68.1,60.6,67.9,63.4,53.3,90,85,76,29.72,29.52,19,2,19,0.22
2013-9-14,67.1,54.2,57.3,55.8,32.6,-99.9,79,61,62,30.02,29.72,16,-47,16,0.00
2013-9-15,69.4,60.8,52.0,52.3,49.4,46.3,83,67,49,30.13,30.01,12,2,12,0.00
2013-9-16,67.3,59.6,50.6,54.6,49.3,38.4,77,69,55,30.22,29.98,22,4,22,0.01
2013-9-17,60.5,52.4,42.6,43.2,38.4,34.6,75,60,45,30.39,30.22,18,3,18,0.00
2013-9-18,69.0,57.7,45.0,48.1,44.2,39.2,83,63,41,30.29,30.10,11,1,11,0.00
2013-9-19,74.1,62.3,50.8,55.2,50.2,44.2,81,66,47,30.10,29.99,10,1,10,0.00
2013-9-20,75.3,64.9,52.9,58.1,54.0,47.2,85,69,53,30.05,29.96,12,2,12,0.00
2013-9-21,74.7,66.7,56.9,63.7,58.8,50.8,87,76,59,30.00,29.70,25,4,25,0.00
2013-9-22,70.9,64.7,54.5,65.4,56.9,44.8,88,76,57,29.79,29.57,21,5,21,0.54
2013-9-23,61.1,54.1,48.0,44.9,41.5,38.4,74,63,52,29.97,29.79,19,6,19,0.00
2013-9-24,64.5,54.1,44.6,45.6,41.5,37.5,78,64,45,29.96,29.78,20,4,20,0.00
2013-9-25,63.9,55.9,47.7,49.1,45.6,41.4,80,69,56,29.95,29.85,15,3,15,0.00
2013-9-26,64.1,58.4,54.1,50.4,47.8,45.1,75,68,57,30.09,29.94,13,3,13,0.00
2013-9-27,65.6,59.6,53.2,51.8,49.4,46.5,78,69,56,30.22,30.09,16,3,16,0.00
2013-9-28,70.3,59.5,51.1,59.0,52.7,46.1,90,79,62,30.29,30.22,16,3,16,0.00
2013-9-29,64.0,55.3,48.9,55.2,50.7,46.7,96,85,63,30.23,30.09,13,2,13,0.00
2013-9-30,65.1,55.9,50.0,56.1,51.2,47.7,95,85,66,30.09,29.93,14,2,14,0.00
2013-10-1,73.3,60.4,49.2,57.8,52.7,47.3,94,78,52,29.94,29.81,17,2,17,0.00
2013-10-2,77.2,65.7,54.2,65.0,58.8,51.3,93,79,64,29.91,29.78,21,2,21,0.00
2013-10-3,74.2,64.5,55.8,57.9,54.4,51.8,89,72,47,30.04,29.91,12,1,12,0.00
2013-10-4,64.2,60.2,54.5,59.9,55.4,50.1,90,84,77,30.05,29.99,9,1,9,0.04
2013-10-5,69.2,63.1,59.7,60.5,58.1,56.6,93,84,68,30.09,30.02,10,2,10,0.00
2013-10-6,61.9,57.7,55.2,57.9,56.0,53.6,97,94,83,30.20,30.08,15,4,15,0.42
2013-10-7,74.5,66.2,58.0,70.6,64.3,57.2,99,94,82,30.09,29.79,33,5,33,0.02
2013-10-8,64.1,58.5,51.5,57.6,48.0,42.1,85,69,49,30.34,29.86,20,4,20,0.00
2013-10-9,60.2,53.3,46.1,48.4,45.5,41.8,87,75,62,30.45,30.33,17,4,17,0.00
2013-10-10,62.3,53.4,45.2,54.8,49.3,42.7,93,86,75,30.33,30.15,12,2,12,0.00
2013-10-11,68.0,58.1,50.3,57.1,51.1,41.2,94,79,38,30.15,30.06,13,2,13,0.00
2013-10-12,60.6,55.5,49.5,57.0,52.1,47.2,96,88,83,30.36,30.11,23,4,23,0.00
2013-10-13,59.9,52.9,45.3,51.4,47.5,42.2,93,82,64,30.42,30.34,15,3,15,0.00
2013-10-14,61.7,50.1,39.6,51.7,44.7,37.0,95,83,52,30.38,30.22,11,1,11,0.00
2013-10-15,66.6,57.5,49.7,57.2,52.1,46.6,92,83,69,30.23,30.14,7,2,4,0.00
2013-10-16,62.2,56.4,50.3,56.9,53.0,48.0,95,88,82,30.14,29.87,8,1,11,0.00
2013-10-17,69.8,61.4,53.7,62.3,57.8,51.7,96,88,77,29.88,29.69,12,2,12,0.01
2013-10-18,66.0,60.8,51.2,60.9,53.7,44.0,96,79,57,29.87,29.58,22,4,22,0.03
2013-10-19,64.9,55.0,44.7,50.4,45.9,40.6,88,72,55,29.94,29.72,14,2,19,0.01
2013-10-20,60.4,54.2,44.4,51.8,44.0,37.6,91,70,46,29.99,29.66,26,3,26,0.02
2013-10-21,63.5,52.4,40.1,47.7,42.8,36.3,89,71,53,30.08,29.96,14,2,14,0.00
2013-10-22,66.2,55.1,44.5,54.9,47.7,40.8,94,77,62,29.96,29.67,18,2,18,0.00
2013-10-23,52.9,47.6,40.6,40.7,37.9,35.9,85,70,57,29.77,29.56,11,1,11,0.00
2013-10-24,52.3,46.1,39.9,38.1,33.7,29.6,79,63,46,29.85,29.60,21,3,21,0.00
2013-10-25,49.7,42.0,34.7,36.6,31.6,28.8,84,67,52,30.12,29.85,19,3,19,0.00
2013-10-26,54.7,43.7,32.7,39.6,33.0,28.0,87,67,44,30.12,29.84,22,2,22,0.00
2013-10-27,53.7,47.8,41.6,42.0,37.8,32.4,89,69,52,30.03,29.78,21,3,21,0.04
2013-10-28,57.7,45.7,36.2,40.6,34.4,28.4,84,66,49,30.32,30.03,22,3,22,0.00
2013-10-29,48.6,39.9,32.5,35.7,30.0,24.5,85,68,48,30.41,30.32,11,2,11,0.00
2013-10-30,47.6,40.8,35.7,43.7,37.3,31.6,94,87,84,30.34,30.16,8,0,8,0.05
2013-10-31,60.6,48.4,35.4,59.1,46.4,33.1,96,93,90,30.22,29.76,18,2,18,0.04
2013-11-1,70.3,63.4,57.4,64.8,59.4,53.6,97,87,74,29.76,29.42,35,6,35,0.06
2013-11-2,64.8,55.8,48.2,53.8,48.3,44.9,92,77,52,29.70,29.55,15,1,15,0.00
2013-11-3,52.4,42.3,32.9,48.6,33.6,20.5,91,73,50,30.39,29.68,17,1,17,0.04
2013-11-4,42.3,34.6,28.9,25.2,22.5,19.7,81,62,42,30.67,30.39,10,3,15,0.00
2013-11-5,50.1,38.8,29.1,37.0,30.1,22.9,81,71,55,30.69,30.48,13,2,13,0.00
2013-11-6,61.2,50.3,40.2,50.3,42.7,34.1,88,76,59,30.49,30.01,20,3,20,0.00
2013-11-7,66.0,54.1,41.4,59.4,50.9,35.3,95,89,75,30.01,29.63,21,4,21,0.26
2013-11-8,48.0,40.1,33.8,36.5,30.6,25.1,85,69,57,30.06,29.78,17,4,26,0.00
2013-11-9,45.6,41.2,32.0,31.6,28.3,24.3,75,60,47,30.17,30.01,22,4,22,0.00
2013-11-10,55.5,45.7,41.4,46.6,38.4,31.6,94,76,60,30.01,29.69,25,3,25,0.06
2013-11-11,52.0,44.7,38.5,35.6,32.2,29.0,72,62,46,30.07,29.81,24,4,24,0.00
2013-11-12,47.9,35.9,27.9,40.0,27.6,18.4,90,72,58,30.16,29.85,21,5,21,0.11
2013-11-13,36.6,29.5,24.5,20.7,17.7,15.6,74,62,47,30.25,30.13,18,5,19,0.00
2013-11-14,50.2,39.1,29.0,29.8,24.5,18.7,72,56,43,30.13,29.99,18,3,21,0.01
2013-11-15,61.7,45.6,31.0,35.3,27.7,21.3,70,51,29,30.16,30.06,13,2,16,0.00
2013-11-16,59.6,45.3,36.6,35.9,32.5,29.8,78,62,34,30.28,30.15,9,1,10,0.00
2013-11-17,56.0,46.5,34.7,52.6,42.5,29.7,96,86,77,30.29,29.81,10,2,11,0.06
2013-11-18,65.9,57.5,48.0,61.8,50.1,34.8,98,78,55,29.81,29.49,27,5,27,0.14
2013-11-19,48.0,39.9,31.3,35.2,25.7,19.0,66,57,47,30.25,29.61,28,8,28,0.00
2013-11-20,41.4,32.8,26.6,20.2,18.3,17.1,67,56,39,30.59,30.24,27,4,27,0.00
2013-11-21,47.7,35.9,24.3,30.9,23.2,16.4,73,61,42,30.61,30.34,12,2,12,0.00
2013-11-22,46.4,43.7,39.9,44.8,40.5,30.7,96,89,69,30.34,29.78,6,1,7,0.24
2013-11-23,46.1,40.3,30.1,45.0,29.9,19.7,96,68,44,29.87,29.74,23,7,26,0.00
2013-11-24,29.6,24.4,20.3,18.8,0.7,-8.5,69,37,21,30.16,29.75,38,12,38,0.00
2013-11-25,32.8,25.2,16.9,13.6,-0.9,-11.2,48,33,16,30.33,30.15,17,5,19,0.00
2013-11-26,42.7,36.8,31.0,37.0,19.9,12.7,80,51,39,30.30,30.00,15,3,16,0.13
2013-11-27,61.6,51.2,36.9,56.7,46.1,31.3,86,83,80,30.00,29.17,30,8,37,1.49
2013-11-28,36.9,31.3,25.2,31.2,14.7,4.4,80,51,31,30.40,29.41,26,7,28,0.00
2013-11-29,33.2,27.1,21.7,12.9,7.9,1.8,60,45,31,30.72,30.40,14,4,15,0.00
2013-11-30,33.3,25.9,17.1,20.7,11.7,4.4,61,55,47,30.76,30.40,10,3,12,0.00
2013-12-1,39.7,37.1,33.2,34.0,30.5,21.6,81,77,62,30.39,29.97,11,2,12,0.28
2013-12-2,39.4,37.7,36.5,34.4,32.7,31.5,82,82,81,29.98,29.89,8,2,9,0.02
2013-12-3,47.0,38.4,33.7,34.3,30.4,26.0,82,73,53,29.92,29.81,14,3,14,0.00
2013-12-4,43.4,35.2,30.3,26.5,24.7,23.2,78,66,47,30.17,29.91,17,2,17,0.00
2013-12-5,49.0,42.7,31.3,43.7,35.8,23.1,82,76,71,30.18,29.88,13,2,13,0.00
2013-12-6,54.5,48.1,34.4,50.4,40.7,28.2,86,76,56,30.11,29.82,16,4,19,0.30
2013-12-7,39.8,33.7,28.0,30.5,23.5,16.0,81,67,48,30.42,30.04,21,4,21,0.20
2013-12-8,30.9,28.5,23.5,17.4,13.6,11.5,66,53,45,30.57,30.42,9,2,9,0.00
2013-12-9,39.5,33.5,26.7,34.5,27.0,12.1,86,77,48,30.47,29.84,21,4,21,0.21
2013-12-10,33.3,31.1,25.2,28.4,24.9,12.9,82,78,58,29.96,29.74,21,3,24,0.03
2013-12-11,31.7,26.6,22.4,17.4,15.0,13.1,68,61,50,30.18,29.96,18,5,20,0.01
2013-12-12,25.2,21.9,17.0,14.3,4.4,-2.7,67,48,30,30.24,30.04,25,4,25,0.00
2013-12-13,29.7,22.4,15.4,13.7,7.5,-2.2,62,52,43,30.37,29.96,19,6,24,0.00
2013-12-14,29.6,17.3,10.7,23.9,3.4,-8.2,79,55,39,30.58,30.11,24,5,24,0.00
2013-12-15,35.2,28.2,22.4,30.2,22.0,16.2,86,77,67,30.11,29.37,27,7,30,0.00
2013-12-16,27.6,23.9,18.1,19.3,9.7,3.8,78,55,39,30.18,29.71,21,5,24,0.00
2013-12-17,20.8,15.3,7.1,14.5,5.1,-4.1,80,64,50,30.26,29.91,21,3,21,0.00
2013-12-18,33.0,24.8,16.6,18.4,15.1,9.4,75,67,52,30.04,29.83,19,5,19,0.00
2013-12-19,40.3,32.9,24.3,24.5,21.7,15.8,73,63,50,30.08,29.92,23,3,23,0.12
2013-12-20,48.7,38.4,29.7,35.0,28.9,22.4,78,69,56,30.09,29.86,13,2,14,0.74
2013-12-21,53.0,45.1,38.1,43.1,37.4,29.8,85,74,66,29.92,29.82,12,2,13,0.26
2013-12-22,48.1,39.8,34.7,42.9,34.6,29.8,82,81,78,30.01,29.76,19,3,19,0.00
2013-12-23,36.6,33.9,32.5,31.9,29.1,27.6,83,82,82,30.06,29.92,12,2,12,0.58
2013-12-24,36.5,31.8,27.0,31.8,19.9,11.1,83,62,44,30.17,30.01,19,5,20,0.01
2013-12-25,27.0,19.9,14.4,12.3,2.4,-2.8,57,46,38,30.52,30.16,22,5,22,0.00
2013-12-26,34.1,27.2,19.4,27.0,18.5,6.6,78,70,57,30.48,30.05,15,2,15,0.00
2013-12-27,33.4,26.7,21.6,19.2,16.7,14.8,84,66,52,30.24,30.16,16,3,19,0.02
2013-12-28,44.7,35.2,24.8,26.1,22.4,16.4,72,60,45,30.18,29.95,19,3,22,0.02
2013-12-29,40.7,35.0,28.8,35.1,27.7,20.9,82,74,62,30.00,29.36,21,2,21,1.14
2013-12-30,38.9,32.5,19.5,33.5,19.0,5.5,83,59,40,30.14,29.50,24,6,25,0.01
2013-12-31,25.2,19.5,14.1,13.4,2.1,-6.8,66,47,36,30.15,29.99,13,4,13,0.00
2014-1-1,27.9,22.5,16.8,9.0,5.2,2.7,59,47,37,30.35,30.15,16,3,17,0.00
2014-1-2,22.6,12.2,1.7,11.2,4.2,-6.1,80,70,50,30.33,29.82,23,7,24,0.00